createdAt,value
2019-05-26T00:02:45.423Z,9.30
2019-05-26T00:07:46.491Z,9.30
2019-05-26T00:12:47.591Z,9.30
2019-05-26T00:17:48.691Z,9.30
2019-05-26T00:22:49.802Z,9.50
2019-05-26T00:27:50.892Z,9.60
2019-05-26T00:32:51.988Z,9.60
2019-05-26T00:37:53.080Z,9.60
2019-05-26T00:42:54.276Z,9.60
2019-05-26T00:47:55.495Z,9.50
2019-05-26T00:52:57.092Z,9.70
2019-05-26T00:57:58.398Z,9.80
2019-05-26T01:02:59.488Z,9.80
2019-05-26T01:08:06.108Z,9.90
2019-05-26T01:13:05.081Z,9.90
2019-05-26T01:18:06.376Z,9.80
2019-05-26T01:23:07.469Z,9.80
2019-05-26T01:28:08.568Z,9.80
2019-05-26T01:33:09.684Z,9.60
2019-05-26T01:38:23.108Z,9.50
2019-05-26T01:43:14.914Z,9.40
2019-05-26T01:48:16.624Z,9.30
2019-05-26T01:53:17.866Z,9.20
2019-05-26T01:58:18.948Z,9.00
2019-05-26T02:03:20.260Z,8.80
2019-05-26T02:08:21.357Z,8.70
2019-05-26T02:13:22.543Z,9.10
2019-05-26T02:18:23.639Z,8.30
2019-05-26T02:23:24.738Z,8.10
2019-05-26T02:28:25.923Z,8.00
2019-05-26T02:33:27.025Z,8.50
2019-05-26T02:38:28.126Z,7.90
2019-05-26T02:43:29.221Z,8.20
2019-05-26T02:48:30.329Z,8.30
2019-05-26T02:53:31.419Z,8.30
2019-05-26T02:58:32.506Z,8.30
2019-05-26T03:03:33.801Z,8.40
2019-05-26T03:08:36.406Z,8.40
2019-05-26T03:13:38.409Z,8.60
2019-05-26T03:18:41.345Z,8.60
2019-05-26T03:23:45.914Z,8.70
2019-05-26T03:28:47.013Z,8.80
2019-05-26T03:33:48.129Z,8.60
2019-05-26T03:38:49.310Z,8.40
2019-05-26T03:43:50.512Z,8.30
2019-05-26T03:48:51.647Z,8.30
2019-05-26T03:53:52.820Z,8.20
2019-05-26T03:58:53.911Z,8.20
2019-05-26T04:03:55.028Z,8.20
2019-05-26T04:08:56.121Z,8.30
2019-05-26T04:13:57.301Z,8.40
2019-05-26T04:18:58.396Z,8.40
2019-05-26T04:23:59.485Z,8.50
2019-05-26T04:29:00.563Z,8.70
2019-05-26T04:34:01.758Z,8.90
2019-05-26T04:39:05.349Z,9.00
2019-05-26T04:44:06.547Z,9.30
2019-05-26T04:49:07.666Z,9.60
2019-05-26T04:54:08.787Z,9.70
2019-05-26T04:59:09.880Z,9.80
2019-05-26T05:04:11.367Z,9.90
2019-05-26T05:09:12.458Z,10.00
2019-05-26T05:14:13.548Z,10.10
2019-05-26T05:19:14.654Z,10.30
2019-05-26T05:24:15.803Z,10.40
2019-05-26T05:29:16.979Z,10.50
2019-05-26T05:34:18.073Z,10.70
2019-05-26T05:39:19.195Z,11.00
2019-05-26T05:44:20.305Z,11.10
2019-05-26T05:49:21.530Z,11.30
2019-05-26T05:54:22.627Z,11.60
2019-05-26T05:59:23.719Z,11.80
2019-05-26T06:04:24.821Z,12.10
2019-05-26T06:09:25.916Z,12.20
2019-05-26T06:14:27.007Z,12.40
2019-05-26T06:19:28.112Z,12.70
2019-05-26T06:24:29.191Z,12.90
2019-05-26T06:29:30.299Z,13.10
2019-05-26T06:34:31.387Z,13.20
2019-05-26T06:39:32.494Z,13.40
2019-05-26T06:44:33.685Z,13.60
2019-05-26T06:49:34.808Z,13.90
2019-05-26T06:54:35.921Z,14.20
2019-05-26T06:59:37.016Z,14.50
2019-05-26T07:04:38.118Z,14.60
2019-05-26T07:09:39.205Z,15.00
2019-05-26T07:14:40.402Z,15.20
2019-05-26T07:19:41.512Z,15.50
2019-05-26T07:24:42.615Z,15.60
2019-05-26T07:29:43.715Z,16.00
2019-05-26T07:34:44.814Z,16.00
2019-05-26T07:39:46.020Z,16.30
2019-05-26T07:44:47.120Z,16.60
2019-05-26T07:49:48.258Z,16.80
2019-05-26T07:54:49.348Z,17.10
2019-05-26T07:59:50.449Z,17.50
2019-05-26T08:04:51.532Z,17.50
2019-05-26T08:09:52.625Z,17.40
2019-05-26T08:14:53.732Z,17.70
2019-05-26T08:19:54.828Z,18.10
2019-05-26T08:24:55.940Z,18.10
2019-05-26T08:29:57.048Z,18.40
2019-05-26T08:34:58.175Z,18.60
2019-05-26T08:40:01.267Z,18.90
2019-05-26T08:45:03.885Z,18.90
2019-05-26T08:50:05.508Z,19.10
2019-05-26T08:55:07.173Z,19.50
2019-05-26T09:00:08.884Z,19.80
2019-05-26T09:05:11.352Z,20.10
2019-05-26T09:10:12.961Z,20.30
2019-05-26T09:15:14.366Z,20.60
2019-05-26T09:20:16.367Z,20.20
2019-05-26T09:25:17.691Z,20.60
2019-05-26T09:30:19.084Z,20.90
2019-05-26T09:35:20.193Z,21.50
2019-05-26T09:40:21.301Z,21.70
2019-05-26T09:45:22.420Z,22.70
2019-05-26T09:50:24.472Z,23.10
2019-05-26T09:55:25.616Z,23.30
2019-05-26T10:00:26.748Z,24.00
2019-05-26T10:05:27.978Z,24.70
2019-05-26T10:10:29.072Z,24.50
2019-05-26T10:15:30.494Z,24.50
2019-05-26T10:20:31.642Z,24.00
2019-05-26T10:25:32.938Z,24.00
2019-05-26T10:30:34.042Z,25.20
2019-05-26T10:35:35.175Z,25.50
2019-05-26T10:40:38.344Z,26.40
2019-05-26T10:45:39.463Z,26.40
2019-05-26T10:50:40.587Z,26.80
2019-05-26T10:55:41.739Z,26.50
2019-05-26T11:00:42.950Z,26.30
2019-05-26T11:05:44.845Z,26.30
2019-05-26T11:10:46.181Z,26.40
2019-05-26T11:15:47.384Z,27.00
2019-05-26T11:20:48.492Z,28.50
2019-05-26T11:25:49.610Z,29.00
2019-05-26T11:30:50.791Z,29.90
2019-05-26T11:35:51.923Z,30.60
2019-05-26T11:40:53.062Z,29.90
2019-05-26T11:45:54.276Z,29.90
2019-05-26T11:50:56.620Z,30.50
2019-05-26T11:55:57.747Z,31.00
2019-05-26T12:00:58.848Z,30.70
2019-05-26T12:05:59.982Z,31.20
2019-05-26T12:11:01.188Z,31.30
2019-05-26T12:16:02.494Z,30.90
2019-05-26T12:21:03.607Z,31.90
2019-05-26T12:26:04.783Z,32.00
2019-05-26T12:31:05.889Z,32.60
2019-05-26T12:36:07.609Z,33.30
2019-05-26T12:41:08.723Z,34.90
2019-05-26T12:46:09.844Z,35.30
2019-05-26T12:51:11.449Z,34.80
2019-05-26T12:56:12.775Z,35.10
2019-05-26T13:01:13.896Z,34.20
2019-05-26T13:06:17.586Z,35.00
2019-05-26T13:11:17.996Z,35.10
2019-05-26T13:16:19.095Z,35.70
2019-05-26T13:21:20.203Z,36.10
2019-05-26T13:26:21.404Z,37.00
2019-05-26T13:31:22.558Z,37.00
2019-05-26T13:36:23.661Z,36.30
2019-05-26T13:41:24.888Z,38.10
2019-05-26T13:46:26.001Z,38.50
2019-05-26T13:51:27.117Z,38.10
2019-05-26T13:56:28.242Z,35.70
2019-05-26T14:01:29.346Z,35.70
2019-05-26T14:06:30.461Z,35.10
2019-05-26T14:11:31.692Z,34.80
2019-05-26T14:16:33.317Z,35.60
2019-05-26T14:21:34.439Z,33.40
2019-05-26T14:26:35.553Z,34.20
2019-05-26T14:31:36.778Z,34.30
2019-05-26T14:36:38.251Z,31.00
2019-05-26T14:41:39.471Z,29.30
2019-05-26T14:46:40.698Z,28.50
2019-05-26T14:51:41.796Z,30.20
2019-05-26T14:56:43.015Z,31.00
2019-05-26T15:01:44.116Z,33.20
2019-05-26T15:06:45.264Z,30.80
2019-05-26T15:11:46.385Z,32.10
2019-05-26T15:16:47.564Z,31.70
2019-05-26T15:21:48.691Z,30.70
2019-05-26T15:26:49.893Z,29.70
2019-05-26T15:31:51.009Z,27.10
2019-05-26T15:36:52.111Z,25.50
2019-05-26T15:41:53.449Z,26.10
2019-05-26T15:46:54.569Z,30.20
2019-05-26T15:51:55.772Z,30.70
2019-05-26T15:56:56.905Z,30.40
2019-05-26T16:01:58.041Z,32.10
2019-05-26T16:06:59.535Z,31.60
2019-05-26T16:12:00.636Z,28.10
2019-05-26T16:17:01.849Z,26.40
2019-05-26T16:22:03.261Z,25.00
2019-05-26T16:27:18.215Z,24.50
2019-05-26T16:32:07.777Z,24.50
2019-05-26T16:37:08.976Z,24.50
2019-05-26T16:42:10.160Z,24.40
2019-05-26T16:47:11.363Z,24.00
2019-05-26T16:52:12.462Z,25.70
2019-05-26T16:57:13.591Z,28.20
2019-05-26T17:02:14.699Z,30.60
2019-05-26T17:07:15.911Z,31.50
2019-05-26T17:12:17.041Z,31.60
2019-05-26T17:17:18.237Z,31.20
2019-05-26T17:22:19.447Z,31.10
2019-05-26T17:27:20.565Z,30.30
2019-05-26T17:32:21.674Z,29.30
2019-05-26T17:37:22.776Z,27.90
2019-05-26T17:42:23.904Z,27.10
2019-05-26T17:47:30.418Z,25.30
2019-05-26T17:52:28.205Z,24.00
2019-05-26T17:57:29.494Z,23.20
2019-05-26T18:02:30.623Z,22.50
2019-05-26T18:07:31.880Z,22.40
2019-05-26T18:12:32.987Z,22.30
2019-05-26T18:17:46.481Z,22.00
2019-05-26T18:22:38.016Z,21.60
2019-05-26T18:27:39.183Z,21.10
2019-05-26T18:32:40.352Z,20.50
2019-05-26T18:37:41.570Z,20.00
2019-05-26T18:42:42.742Z,19.50
2019-05-26T18:47:43.953Z,19.10
2019-05-26T18:52:45.227Z,18.80
2019-05-26T18:57:46.352Z,18.50
2019-05-26T19:02:47.497Z,18.30
2019-05-26T19:07:48.713Z,18.00
2019-05-26T19:12:50.044Z,17.70
2019-05-26T19:17:51.239Z,17.40
2019-05-26T19:22:53.411Z,17.10
2019-05-26T19:27:54.828Z,16.80
2019-05-26T19:32:55.978Z,16.60
2019-05-26T19:37:57.097Z,16.60
2019-05-26T19:42:58.228Z,16.50
2019-05-26T19:48:02.187Z,16.20
2019-05-26T19:53:03.389Z,15.90
2019-05-26T19:58:04.810Z,15.70
2019-05-26T20:03:06.121Z,15.60
2019-05-26T20:08:07.240Z,15.40
2019-05-26T20:13:08.458Z,15.40
2019-05-26T20:18:09.595Z,15.30
2019-05-26T20:23:10.799Z,15.30
2019-05-26T20:28:11.896Z,15.40
2019-05-26T20:33:12.998Z,15.40
2019-05-26T20:38:14.128Z,15.40
2019-05-26T20:43:15.264Z,15.40
2019-05-26T20:48:16.485Z,15.40
2019-05-26T20:53:17.588Z,15.40
2019-05-26T20:58:18.702Z,15.30
2019-05-26T21:03:19.817Z,15.10
2019-05-26T21:08:20.952Z,15.10
2019-05-26T21:13:22.457Z,15.00
2019-05-26T21:18:23.685Z,15.00
2019-05-26T21:23:24.888Z,14.80
2019-05-26T21:28:26.019Z,14.60
2019-05-26T21:33:27.115Z,14.40
2019-05-26T21:38:28.320Z,14.30
2019-05-26T21:43:29.635Z,14.30
2019-05-26T21:48:34.157Z,14.20
2019-05-26T21:53:33.849Z,14.10
2019-05-26T21:58:34.944Z,14.10
2019-05-26T22:03:36.039Z,14.00
2019-05-26T22:08:37.248Z,14.00
2019-05-26T22:13:38.361Z,14.10
2019-05-26T22:18:39.465Z,14.00
2019-05-26T22:23:40.552Z,14.00
2019-05-26T22:28:41.648Z,13.80
2019-05-26T22:33:42.810Z,13.80
2019-05-26T22:38:43.942Z,13.60
2019-05-26T22:43:45.155Z,13.40
2019-05-26T22:48:46.242Z,13.20
2019-05-26T22:53:47.341Z,13.10
2019-05-26T22:58:48.454Z,13.00
2019-05-26T23:03:49.552Z,12.80
2019-05-26T23:08:50.750Z,12.70
2019-05-26T23:13:51.846Z,12.70
2019-05-26T23:18:52.944Z,12.80
2019-05-26T23:23:54.048Z,12.90
2019-05-26T23:28:55.197Z,12.80
2019-05-26T23:33:56.342Z,12.70
2019-05-26T23:38:57.440Z,12.50
2019-05-26T23:43:58.545Z,12.50
2019-05-26T23:48:59.663Z,12.40
2019-05-26T23:54:00.760Z,12.30
2019-05-26T23:59:01.867Z,12.20
